Hadley, United Kingdom
Current Conditions -  °F | °C
As of 12:50 PM on Monday 22 Dec 2014 (Local Time) from EGOS Reporting Station
Broken Clouds Broken Clouds  
Wind Chill: 55°   Ceiling: 2100
Heat Index: 55°   Visibility: 6mi
Dew Point: 48°   Wind: 26mph
Humidity: 77%   Direction: 240°WSW
Pressure: 29.91"   Gusts: NA
Location:  52.7°N, 2.48°W
Report Text: EGOS 221250Z AUTO 24023KT 9999 BKN021/// BKN033/// 13/09 Q1013
Loading
Personal Weather Stations






























Interactive Weather Map New forecast layout! Learn more

10-Day Weather Forecast

Advertisements
Track Severe Weather on mobile